Current Weather

Lansing Muni

Chicago, Illinois (KIGQ)

Report from: Sunday, February 5, 2023 11:35 PM CST
Current time: Monday, February 6, 2023 12:07 AM CST

Nearby weather
Weather history
Weather forecast

Temperature-1.3°C (29.7°F)
Wind chill-3.3°C (26.0°F)
Dew point-4.1°C (24.6°F)
Winds 3 kts (1.5 m/s, 3.5 mph) North (10°)
Visibility10 mi. (16.1 km)
Clouds Sky clear
Altimeter30.15 in.Hg (1021 mB)
Relative humidity81 %
Density altitude-2,191 ft. (-668 m)
Remarks Fully automated report
Automated weather observing station with precipitation discriminator
Flight conditions Visual Meteorological Conditions
Raw dataKIGQ 060535Z AUTO 01003KT 10SM CLR M01/M04 A3015 RMK AO2 T10131041
An error has occurred. This application may no longer respond until reloaded. Reload 🗙